sensor_id;sensor_type;location;lat;lon;timestamp;temperature;humidity
39889;DHT22;25563;50.844;4.308;2022-07-29T00:01:31;20.90;65.00
39889;DHT22;25563;50.844;4.308;2022-07-29T00:03:57;20.90;65.00
39889;DHT22;25563;50.844;4.308;2022-07-29T00:06:24;20.90;65.10
39889;DHT22;25563;50.844;4.308;2022-07-29T00:08:58;20.90;65.20
39889;DHT22;25563;50.844;4.308;2022-07-29T00:11:23;20.90;65.20
39889;DHT22;25563;50.844;4.308;2022-07-29T00:13:49;20.90;65.20
39889;DHT22;25563;50.844;4.308;2022-07-29T00:16:15;20.90;65.20
39889;DHT22;25563;50.844;4.308;2022-07-29T00:18:41;21.00;65.30
39889;DHT22;25563;50.844;4.308;2022-07-29T00:21:07;21.00;65.10
39889;DHT22;25563;50.844;4.308;2022-07-29T00:23:33;21.00;65.20
39889;DHT22;25563;50.844;4.308;2022-07-29T00:25:59;20.90;65.30
39889;DHT22;25563;50.844;4.308;2022-07-29T00:28:25;20.90;65.40
39889;DHT22;25563;50.844;4.308;2022-07-29T00:30:51;20.80;65.60
39889;DHT22;25563;50.844;4.308;2022-07-29T00:33:18;20.70;65.80
39889;DHT22;25563;50.844;4.308;2022-07-29T00:35:44;20.70;65.90
39889;DHT22;25563;50.844;4.308;2022-07-29T00:38:18;20.70;66.10
39889;DHT22;25563;50.844;4.308;2022-07-29T00:40:44;20.70;66.10
39889;DHT22;25563;50.844;4.308;2022-07-29T00:43:11;20.60;66.20
39889;DHT22;25563;50.844;4.308;2022-07-29T00:45:37;20.50;66.50
39889;DHT22;25563;50.844;4.308;2022-07-29T00:48:04;20.60;66.70
39889;DHT22;25563;50.844;4.308;2022-07-29T00:50:31;20.50;66.50
39889;DHT22;25563;50.844;4.308;2022-07-29T00:52:57;20.50;66.70
39889;DHT22;25563;50.844;4.308;2022-07-29T00:55:23;20.50;66.70
39889;DHT22;25563;50.844;4.308;2022-07-29T00:57:49;20.50;66.80
39889;DHT22;25563;50.844;4.308;2022-07-29T01:00:22;20.40;66.90
39889;DHT22;25563;50.844;4.308;2022-07-29T01:02:49;20.30;67.00
39889;DHT22;25563;50.844;4.308;2022-07-29T01:05:17;20.40;67.10
39889;DHT22;25563;50.844;4.308;2022-07-29T01:07:44;19.90;67.00
39889;DHT22;25563;50.844;4.308;2022-07-29T01:10:12;20.30;67.40
39889;DHT22;25563;50.844;4.308;2022-07-29T01:12:39;20.30;67.40
39889;DHT22;25563;50.844;4.308;2022-07-29T01:15:07;20.20;67.50
39889;DHT22;25563;50.844;4.308;2022-07-29T01:18:01;20.20;67.70
39889;DHT22;25563;50.844;4.308;2022-07-29T01:21:05;20.20;67.60
39889;DHT22;25563;50.844;4.308;2022-07-29T01:29:16;20.00;68.10
39889;DHT22;25563;50.844;4.308;2022-07-29T01:31:56;19.90;68.30
39889;DHT22;25563;50.844;4.308;2022-07-29T01:34:32;19.90;68.40
39889;DHT22;25563;50.844;4.308;2022-07-29T01:37:18;19.90;68.40
39889;DHT22;25563;50.844;4.308;2022-07-29T01:39:47;19.90;68.50
39889;DHT22;25563;50.844;4.308;2022-07-29T01:42:29;19.80;68.60
39889;DHT22;25563;50.844;4.308;2022-07-29T01:48:06;19.80;68.70
39889;DHT22;25563;50.844;4.308;2022-07-29T01:51:01;19.70;68.80
39889;DHT22;25563;50.844;4.308;2022-07-29T01:53:32;19.60;69.00
39889;DHT22;25563;50.844;4.308;2022-07-29T01:56:03;19.70;69.30
39889;DHT22;25563;50.844;4.308;2022-07-29T01:58:31;19.60;69.20
39889;DHT22;25563;50.844;4.308;2022-07-29T02:01:08;19.60;69.30
39889;DHT22;25563;50.844;4.308;2022-07-29T02:03:39;19.60;69.30
39889;DHT22;25563;50.844;4.308;2022-07-29T02:06:09;19.60;69.40
39889;DHT22;25563;50.844;4.308;2022-07-29T02:08:39;19.60;69.50
39889;DHT22;25563;50.844;4.308;2022-07-29T02:11:08;19.60;69.40
39889;DHT22;25563;50.844;4.308;2022-07-29T02:13:37;19.60;69.50
39889;DHT22;25563;50.844;4.308;2022-07-29T02:16:06;19.60;69.40
39889;DHT22;25563;50.844;4.308;2022-07-29T02:18:33;19.60;69.40
39889;DHT22;25563;50.844;4.308;2022-07-29T02:21:03;19.80;69.40
39889;DHT22;25563;50.844;4.308;2022-07-29T02:23:30;19.70;69.50
39889;DHT22;25563;50.844;4.308;2022-07-29T02:25:59;19.60;69.40
39889;DHT22;25563;50.844;4.308;2022-07-29T02:28:29;19.60;69.50
39889;DHT22;25563;50.844;4.308;2022-07-29T02:31:00;19.60;69.60
39889;DHT22;25563;50.844;4.308;2022-07-29T02:33:31;19.60;69.70
39889;DHT22;25563;50.844;4.308;2022-07-29T02:36:03;19.60;69.60
39889;DHT22;25563;50.844;4.308;2022-07-29T02:38:31;19.50;69.70
39889;DHT22;25563;50.844;4.308;2022-07-29T02:41:50;19.50;69.80
39889;DHT22;25563;50.844;4.308;2022-07-29T02:44:23;19.40;69.90
39889;DHT22;25563;50.844;4.308;2022-07-29T02:49:35;19.50;70.60
39889;DHT22;25563;50.844;4.308;2022-07-29T02:52:06;19.40;70.20
39889;DHT22;25563;50.844;4.308;2022-07-29T02:57:32;19.30;70.60
39889;DHT22;25563;50.844;4.308;2022-07-29T03:00:06;19.20;70.70
39889;DHT22;25563;50.844;4.308;2022-07-29T03:02:36;19.20;70.80
39889;DHT22;25563;50.844;4.308;2022-07-29T03:05:06;19.20;71.00
39889;DHT22;25563;50.844;4.308;2022-07-29T03:07:34;19.20;71.10
39889;DHT22;25563;50.844;4.308;2022-07-29T03:10:01;19.20;71.10
39889;DHT22;25563;50.844;4.308;2022-07-29T03:12:29;19.20;71.10
39889;DHT22;25563;50.844;4.308;2022-07-29T03:14:56;19.10;71.10
39889;DHT22;25563;50.844;4.308;2022-07-29T03:17:24;19.20;71.20
39889;DHT22;25563;50.844;4.308;2022-07-29T03:19:52;19.20;71.20
39889;DHT22;25563;50.844;4.308;2022-07-29T03:22:18;19.20;71.20
39889;DHT22;25563;50.844;4.308;2022-07-29T03:24:46;19.10;71.40
39889;DHT22;25563;50.844;4.308;2022-07-29T03:27:14;19.10;71.50
39889;DHT22;25563;50.844;4.308;2022-07-29T03:29:40;19.00;71.70
39889;DHT22;25563;50.844;4.308;2022-07-29T03:32:09;19.00;71.90
39889;DHT22;25563;50.844;4.308;2022-07-29T03:34:36;19.00;71.90
39889;DHT22;25563;50.844;4.308;2022-07-29T03:37:03;19.00;71.90
39889;DHT22;25563;50.844;4.308;2022-07-29T03:39:33;19.00;72.00
39889;DHT22;25563;50.844;4.308;2022-07-29T03:42:08;19.00;71.90
39889;DHT22;25563;50.844;4.308;2022-07-29T03:44:37;19.00;71.90
39889;DHT22;25563;50.844;4.308;2022-07-29T03:47:08;19.00;72.10
39889;DHT22;25563;50.844;4.308;2022-07-29T03:49:36;19.00;72.10
39889;DHT22;25563;50.844;4.308;2022-07-29T03:52:04;19.00;72.10
39889;DHT22;25563;50.844;4.308;2022-07-29T03:54:32;19.00;72.10
39889;DHT22;25563;50.844;4.308;2022-07-29T03:56:59;19.00;72.10
39889;DHT22;25563;50.844;4.308;2022-07-29T03:59:27;19.00;72.30
39889;DHT22;25563;50.844;4.308;2022-07-29T04:01:56;19.00;72.20
39889;DHT22;25563;50.844;4.308;2022-07-29T04:04:35;18.90;72.30
39889;DHT22;25563;50.844;4.308;2022-07-29T04:07:05;18.90;72.50
39889;DHT22;25563;50.844;4.308;2022-07-29T04:09:33;18.90;72.60
39889;DHT22;25563;50.844;4.308;2022-07-29T04:11:59;18.90;72.70
39889;DHT22;25563;50.844;4.308;2022-07-29T04:14:28;18.80;72.80
39889;DHT22;25563;50.844;4.308;2022-07-29T04:16:54;18.80;73.00
39889;DHT22;25563;50.844;4.308;2022-07-29T04:19:21;18.80;73.10
39889;DHT22;25563;50.844;4.308;2022-07-29T04:21:50;18.70;73.30
39889;DHT22;25563;50.844;4.308;2022-07-29T04:24:17;18.70;73.40
39889;DHT22;25563;50.844;4.308;2022-07-29T04:26:46;18.70;73.40
39889;DHT22;25563;50.844;4.308;2022-07-29T04:29:12;18.70;73.60
39889;DHT22;25563;50.844;4.308;2022-07-29T04:31:40;18.80;73.80
39889;DHT22;25563;50.844;4.308;2022-07-29T04:34:06;18.60;73.80
39889;DHT22;25563;50.844;4.308;2022-07-29T04:36:32;18.60;74.00
39889;DHT22;25563;50.844;4.308;2022-07-29T04:38:58;18.60;74.20
39889;DHT22;25563;50.844;4.308;2022-07-29T04:41:29;18.60;74.20
39889;DHT22;25563;50.844;4.308;2022-07-29T04:43:57;18.50;74.10
39889;DHT22;25563;50.844;4.308;2022-07-29T04:46:26;18.60;74.30
39889;DHT22;25563;50.844;4.308;2022-07-29T04:48:53;18.50;74.50
39889;DHT22;25563;50.844;4.308;2022-07-29T04:51:20;18.50;74.60
39889;DHT22;25563;50.844;4.308;2022-07-29T04:53:49;18.40;74.80
39889;DHT22;25563;50.844;4.308;2022-07-29T04:56:16;18.40;74.80
39889;DHT22;25563;50.844;4.308;2022-07-29T04:58:42;18.50;74.80
39889;DHT22;25563;50.844;4.308;2022-07-29T05:01:09;18.50;74.70
39889;DHT22;25563;50.844;4.308;2022-07-29T05:03:36;18.80;74.90
39889;DHT22;25563;50.844;4.308;2022-07-29T05:06:03;18.60;74.80
39889;DHT22;25563;50.844;4.308;2022-07-29T05:08:30;18.60;75.00
39889;DHT22;25563;50.844;4.308;2022-07-29T05:10:56;18.60;74.80
39889;DHT22;25563;50.844;4.308;2022-07-29T05:13:23;18.60;74.80
39889;DHT22;25563;50.844;4.308;2022-07-29T05:15:49;18.50;74.80
39889;DHT22;25563;50.844;4.308;2022-07-29T05:18:18;18.70;74.90
39889;DHT22;25563;50.844;4.308;2022-07-29T05:20:45;18.80;75.00
39889;DHT22;25563;50.844;4.308;2022-07-29T05:23:14;18.80;74.70
39889;DHT22;25563;50.844;4.308;2022-07-29T05:25:40;18.90;74.50
39889;DHT22;25563;50.844;4.308;2022-07-29T05:28:07;19.00;74.40
39889;DHT22;25563;50.844;4.308;2022-07-29T05:30:36;18.90;74.20
39889;DHT22;25563;50.844;4.308;2022-07-29T05:33:03;19.00;74.20
39889;DHT22;25563;50.844;4.308;2022-07-29T05:35:29;19.00;74.10
39889;DHT22;25563;50.844;4.308;2022-07-29T05:40:23;19.10;73.90
39889;DHT22;25563;50.844;4.308;2022-07-29T05:42:48;19.10;73.90
39889;DHT22;25563;50.844;4.308;2022-07-29T05:45:16;19.10;73.90
39889;DHT22;25563;50.844;4.308;2022-07-29T05:47:42;19.00;74.00
39889;DHT22;25563;50.844;4.308;2022-07-29T05:50:08;19.00;74.20
39889;DHT22;25563;50.844;4.308;2022-07-29T05:52:34;19.10;74.20
39889;DHT22;25563;50.844;4.308;2022-07-29T05:55:00;19.10;74.20
39889;DHT22;25563;50.844;4.308;2022-07-29T05:57:33;19.10;74.20
39889;DHT22;25563;50.844;4.308;2022-07-29T05:59:58;19.10;74.30
39889;DHT22;25563;50.844;4.308;2022-07-29T06:02:25;19.10;74.50
39889;DHT22;25563;50.844;4.308;2022-07-29T06:04:52;19.00;74.70
39889;DHT22;25563;50.844;4.308;2022-07-29T06:07:23;19.10;74.70
39889;DHT22;25563;50.844;4.308;2022-07-29T06:09:48;19.20;74.70
39889;DHT22;25563;50.844;4.308;2022-07-29T06:12:14;19.20;74.40
39889;DHT22;25563;50.844;4.308;2022-07-29T06:14:43;19.20;74.40
39889;DHT22;25563;50.844;4.308;2022-07-29T06:17:09;19.30;74.50
39889;DHT22;25563;50.844;4.308;2022-07-29T06:19:37;19.40;74.20
39889;DHT22;25563;50.844;4.308;2022-07-29T06:22:06;19.50;74.10
39889;DHT22;25563;50.844;4.308;2022-07-29T06:24:36;19.60;73.90
39889;DHT22;25563;50.844;4.308;2022-07-29T06:27:12;19.60;73.60
39889;DHT22;25563;50.844;4.308;2022-07-29T06:29:39;19.80;73.50
39889;DHT22;25563;50.844;4.308;2022-07-29T06:32:06;19.90;73.20
39889;DHT22;25563;50.844;4.308;2022-07-29T06:34:36;20.00;73.30
39889;DHT22;25563;50.844;4.308;2022-07-29T06:37:06;20.00;73.30
39889;DHT22;25563;50.844;4.308;2022-07-29T06:39:35;20.10;72.90
39889;DHT22;25563;50.844;4.308;2022-07-29T06:42:04;20.30;72.40
39889;DHT22;25563;50.844;4.308;2022-07-29T06:44:32;20.50;72.10
39889;DHT22;25563;50.844;4.308;2022-07-29T06:47:01;20.70;71.70
39889;DHT22;25563;50.844;4.308;2022-07-29T06:49:28;20.80;71.30
39889;DHT22;25563;50.844;4.308;2022-07-29T06:51:54;20.90;71.00
39889;DHT22;25563;50.844;4.308;2022-07-29T06:54:38;21.10;71.00
39889;DHT22;25563;50.844;4.308;2022-07-29T06:57:05;21.30;70.50
39889;DHT22;25563;50.844;4.308;2022-07-29T06:59:41;21.30;69.80
39889;DHT22;25563;50.844;4.308;2022-07-29T07:02:08;21.50;69.70
39889;DHT22;25563;50.844;4.308;2022-07-29T07:04:38;21.70;69.50
39889;DHT22;25563;50.844;4.308;2022-07-29T07:07:05;21.70;69.50
39889;DHT22;25563;50.844;4.308;2022-07-29T07:09:32;21.80;69.30
39889;DHT22;25563;50.844;4.308;2022-07-29T07:11:59;21.90;68.90
39889;DHT22;25563;50.844;4.308;2022-07-29T07:14:30;22.00;68.60
39889;DHT22;25563;50.844;4.308;2022-07-29T07:16:55;22.00;68.60
39889;DHT22;25563;50.844;4.308;2022-07-29T07:19:25;22.00;68.60
39889;DHT22;25563;50.844;4.308;2022-07-29T07:21:53;21.90;69.00
39889;DHT22;25563;50.844;4.308;2022-07-29T07:24:20;21.80;69.40
39889;DHT22;25563;50.844;4.308;2022-07-29T07:26:55;21.70;69.50
39889;DHT22;25563;50.844;4.308;2022-07-29T07:29:21;21.40;70.00
39889;DHT22;25563;50.844;4.308;2022-07-29T07:31:47;21.30;70.40
39889;DHT22;25563;50.844;4.308;2022-07-29T07:34:13;21.10;70.90
39889;DHT22;25563;50.844;4.308;2022-07-29T07:36:40;21.00;71.40
39889;DHT22;25563;50.844;4.308;2022-07-29T07:39:08;21.10;71.80
39889;DHT22;25563;50.844;4.308;2022-07-29T07:41:35;21.10;71.40
39889;DHT22;25563;50.844;4.308;2022-07-29T07:44:09;21.00;71.60
39889;DHT22;25563;50.844;4.308;2022-07-29T07:46:41;20.90;71.90
39889;DHT22;25563;50.844;4.308;2022-07-29T07:49:07;21.00;72.20
39889;DHT22;25563;50.844;4.308;2022-07-29T07:51:35;20.90;72.40
39889;DHT22;25563;50.844;4.308;2022-07-29T07:54:03;21.00;72.40
39889;DHT22;25563;50.844;4.308;2022-07-29T07:56:30;21.00;72.00
39889;DHT22;25563;50.844;4.308;2022-07-29T07:58:57;21.10;72.00
39889;DHT22;25563;50.844;4.308;2022-07-29T08:01:24;21.20;72.00
39889;DHT22;25563;50.844;4.308;2022-07-29T08:03:51;21.30;72.10
39889;DHT22;25563;50.844;4.308;2022-07-29T08:06:21;21.40;72.00
39889;DHT22;25563;50.844;4.308;2022-07-29T08:08:47;21.50;71.80
39889;DHT22;25563;50.844;4.308;2022-07-29T08:11:14;21.60;72.00
39889;DHT22;25563;50.844;4.308;2022-07-29T08:13:40;21.60;71.80
39889;DHT22;25563;50.844;4.308;2022-07-29T08:16:15;21.60;71.60
39889;DHT22;25563;50.844;4.308;2022-07-29T08:18:44;21.60;71.60
39889;DHT22;25563;50.844;4.308;2022-07-29T08:21:15;21.70;71.70
39889;DHT22;25563;50.844;4.308;2022-07-29T08:23:46;21.70;71.70
39889;DHT22;25563;50.844;4.308;2022-07-29T08:26:18;21.80;71.60
39889;DHT22;25563;50.844;4.308;2022-07-29T08:28:46;21.90;71.10
39889;DHT22;25563;50.844;4.308;2022-07-29T08:31:15;22.00;70.80
39889;DHT22;25563;50.844;4.308;2022-07-29T08:34:01;22.10;70.90
39889;DHT22;25563;50.844;4.308;2022-07-29T08:36:31;22.20;70.70
39889;DHT22;25563;50.844;4.308;2022-07-29T08:38:59;22.20;70.20
39889;DHT22;25563;50.844;4.308;2022-07-29T08:41:39;22.30;70.30
39889;DHT22;25563;50.844;4.308;2022-07-29T08:44:07;22.30;70.20
39889;DHT22;25563;50.844;4.308;2022-07-29T08:46:44;22.40;70.30
39889;DHT22;25563;50.844;4.308;2022-07-29T08:49:26;22.40;70.50
39889;DHT22;25563;50.844;4.308;2022-07-29T08:51:53;22.50;70.20
39889;DHT22;25563;50.844;4.308;2022-07-29T08:54:21;22.60;69.90
39889;DHT22;25563;50.844;4.308;2022-07-29T08:56:53;22.70;69.60
39889;DHT22;25563;50.844;4.308;2022-07-29T08:59:29;22.70;69.80
39889;DHT22;25563;50.844;4.308;2022-07-29T09:01:59;22.80;69.30
39889;DHT22;25563;50.844;4.308;2022-07-29T09:04:31;22.90;68.60
39889;DHT22;25563;50.844;4.308;2022-07-29T09:07:02;23.00;68.60
39889;DHT22;25563;50.844;4.308;2022-07-29T09:09:29;23.00;68.10
39889;DHT22;25563;50.844;4.308;2022-07-29T09:11:59;23.10;67.50
39889;DHT22;25563;50.844;4.308;2022-07-29T09:14:28;23.20;67.80
39889;DHT22;25563;50.844;4.308;2022-07-29T09:16:56;23.20;67.50
39889;DHT22;25563;50.844;4.308;2022-07-29T09:19:31;23.30;67.70
39889;DHT22;25563;50.844;4.308;2022-07-29T09:21:59;23.40;66.00
39889;DHT22;25563;50.844;4.308;2022-07-29T09:24:41;23.50;66.60
39889;DHT22;25563;50.844;4.308;2022-07-29T09:27:10;23.60;66.40
39889;DHT22;25563;50.844;4.308;2022-07-29T09:32:56;23.70;65.90
39889;DHT22;25563;50.844;4.308;2022-07-29T09:35:42;23.90;65.20
39889;DHT22;25563;50.844;4.308;2022-07-29T09:38:34;23.90;64.80
39889;DHT22;25563;50.844;4.308;2022-07-29T09:41:11;24.00;64.80
39889;DHT22;25563;50.844;4.308;2022-07-29T09:44:01;24.00;64.70
39889;DHT22;25563;50.844;4.308;2022-07-29T09:47:06;24.20;64.30
39889;DHT22;25563;50.844;4.308;2022-07-29T09:52:52;24.50;63.40
39889;DHT22;25563;50.844;4.308;2022-07-29T09:55:19;24.50;62.90
39889;DHT22;25563;50.844;4.308;2022-07-29T09:57:46;24.50;62.40
39889;DHT22;25563;50.844;4.308;2022-07-29T10:00:18;24.70;62.90
39889;DHT22;25563;50.844;4.308;2022-07-29T10:02:46;24.80;62.60
39889;DHT22;25563;50.844;4.308;2022-07-29T10:05:27;24.90;63.20
39889;DHT22;25563;50.844;4.308;2022-07-29T10:07:57;25.10;62.20
39889;DHT22;25563;50.844;4.308;2022-07-29T10:10:31;25.10;60.90
39889;DHT22;25563;50.844;4.308;2022-07-29T10:12:59;25.10;60.70
39889;DHT22;25563;50.844;4.308;2022-07-29T10:15:30;25.10;62.00
39889;DHT22;25563;50.844;4.308;2022-07-29T10:17:59;25.20;62.30
39889;DHT22;25563;50.844;4.308;2022-07-29T10:20:27;25.30;62.00
39889;DHT22;25563;50.844;4.308;2022-07-29T10:22:55;25.40;60.90
39889;DHT22;25563;50.844;4.308;2022-07-29T10:25:25;25.40;60.00
39889;DHT22;25563;50.844;4.308;2022-07-29T10:27:55;25.40;60.80
39889;DHT22;25563;50.844;4.308;2022-07-29T10:30:26;25.30;60.80
39889;DHT22;25563;50.844;4.308;2022-07-29T10:33:21;25.30;61.10
39889;DHT22;25563;50.844;4.308;2022-07-29T10:36:26;25.30;60.70
39889;DHT22;25563;50.844;4.308;2022-07-29T10:39:12;25.40;60.80
39889;DHT22;25563;50.844;4.308;2022-07-29T10:44:42;26.10;60.50
39889;DHT22;25563;50.844;4.308;2022-07-29T10:47:23;26.40;59.30
39889;DHT22;25563;50.844;4.308;2022-07-29T10:50:04;26.30;58.50
39889;DHT22;25563;50.844;4.308;2022-07-29T10:52:57;26.20;57.20
39889;DHT22;25563;50.844;4.308;2022-07-29T10:55:35;26.00;58.10
39889;DHT22;25563;50.844;4.308;2022-07-29T10:58:23;25.90;57.40
39889;DHT22;25563;50.844;4.308;2022-07-29T11:00:51;25.80;57.90
39889;DHT22;25563;50.844;4.308;2022-07-29T11:03:47;25.70;58.20
39889;DHT22;25563;50.844;4.308;2022-07-29T11:06:13;25.80;58.20
39889;DHT22;25563;50.844;4.308;2022-07-29T11:08:41;25.70;57.50
39889;DHT22;25563;50.844;4.308;2022-07-29T11:11:33;25.70;57.30
39889;DHT22;25563;50.844;4.308;2022-07-29T11:14:01;25.80;57.60
39889;DHT22;25563;50.844;4.308;2022-07-29T11:19:35;26.00;57.10
39889;DHT22;25563;50.844;4.308;2022-07-29T11:22:08;26.20;56.70
39889;DHT22;25563;50.844;4.308;2022-07-29T11:24:38;26.40;56.10
39889;DHT22;25563;50.844;4.308;2022-07-29T11:27:12;26.40;55.60
39889;DHT22;25563;50.844;4.308;2022-07-29T11:29:58;26.50;55.50
39889;DHT22;25563;50.844;4.308;2022-07-29T11:39:25;27.00;54.30
39889;DHT22;25563;50.844;4.308;2022-07-29T11:45:19;27.40;54.00
39889;DHT22;25563;50.844;4.308;2022-07-29T11:48:44;27.80;54.50
39889;DHT22;25563;50.844;4.308;2022-07-29T11:51:13;28.10;53.20
39889;DHT22;25563;50.844;4.308;2022-07-29T11:53:47;28.10;53.20
39889;DHT22;25563;50.844;4.308;2022-07-29T11:56:14;28.40;52.70
39889;DHT22;25563;50.844;4.308;2022-07-29T11:58:46;28.80;52.40
39889;DHT22;25563;50.844;4.308;2022-07-29T12:01:18;28.80;52.20
39889;DHT22;25563;50.844;4.308;2022-07-29T12:03:46;29.20;52.50
39889;DHT22;25563;50.844;4.308;2022-07-29T12:06:13;29.80;50.30
39889;DHT22;25563;50.844;4.308;2022-07-29T12:08:41;29.60;50.00
39889;DHT22;25563;50.844;4.308;2022-07-29T12:11:18;31.40;48.80
39889;DHT22;25563;50.844;4.308;2022-07-29T12:13:50;33.70;46.50
39889;DHT22;25563;50.844;4.308;2022-07-29T12:16:16;35.50;44.70
39889;DHT22;25563;50.844;4.308;2022-07-29T12:18:42;36.90;43.40
39889;DHT22;25563;50.844;4.308;2022-07-29T12:21:08;37.70;42.20
39889;DHT22;25563;50.844;4.308;2022-07-29T12:23:38;38.30;42.00
39889;DHT22;25563;50.844;4.308;2022-07-29T12:31:28;34.90;43.40
39889;DHT22;25563;50.844;4.308;2022-07-29T12:33:59;34.80;44.10
39889;DHT22;25563;50.844;4.308;2022-07-29T12:39:17;32.90;45.60
39889;DHT22;25563;50.844;4.308;2022-07-29T12:41:44;34.00;44.50
39889;DHT22;25563;50.844;4.308;2022-07-29T12:44:15;36.10;43.30
39889;DHT22;25563;50.844;4.308;2022-07-29T12:46:43;36.30;42.40
39889;DHT22;25563;50.844;4.308;2022-07-29T12:49:32;35.00;43.30
39889;DHT22;25563;50.844;4.308;2022-07-29T12:51:58;33.60;44.30
39889;DHT22;25563;50.844;4.308;2022-07-29T12:54:23;32.50;45.20
39889;DHT22;25563;50.844;4.308;2022-07-29T12:56:58;31.80;46.00
39889;DHT22;25563;50.844;4.308;2022-07-29T12:59:26;31.10;46.20
39889;DHT22;25563;50.844;4.308;2022-07-29T13:01:55;30.90;46.70
39889;DHT22;25563;50.844;4.308;2022-07-29T13:04:30;32.10;45.90
39889;DHT22;25563;50.844;4.308;2022-07-29T13:07:05;34.30;44.90
39889;DHT22;25563;50.844;4.308;2022-07-29T13:09:51;35.60;43.50
39889;DHT22;25563;50.844;4.308;2022-07-29T13:12:19;35.70;42.90
39889;DHT22;25563;50.844;4.308;2022-07-29T13:14:49;35.90;42.80
39889;DHT22;25563;50.844;4.308;2022-07-29T13:19:52;37.60;41.70
39889;DHT22;25563;50.844;4.308;2022-07-29T13:22:20;38.80;40.80
39889;DHT22;25563;50.844;4.308;2022-07-29T13:25:08;39.60;40.10
39889;DHT22;25563;50.844;4.308;2022-07-29T13:27:38;40.70;39.80
39889;DHT22;25563;50.844;4.308;2022-07-29T13:30:06;41.40;38.80
39889;DHT22;25563;50.844;4.308;2022-07-29T13:32:37;42.00;38.10
39889;DHT22;25563;50.844;4.308;2022-07-29T13:35:08;41.80;37.70
39889;DHT22;25563;50.844;4.308;2022-07-29T13:37:36;41.30;37.70
39889;DHT22;25563;50.844;4.308;2022-07-29T13:40:07;41.40;37.70
39889;DHT22;25563;50.844;4.308;2022-07-29T13:42:35;41.40;37.60
39889;DHT22;25563;50.844;4.308;2022-07-29T13:45:06;41.60;37.60
39889;DHT22;25563;50.844;4.308;2022-07-29T13:47:33;41.90;37.30
39889;DHT22;25563;50.844;4.308;2022-07-29T13:50:04;42.10;37.60
39889;DHT22;25563;50.844;4.308;2022-07-29T13:52:37;42.30;36.70
39889;DHT22;25563;50.844;4.308;2022-07-29T13:55:04;42.30;37.00
39889;DHT22;25563;50.844;4.308;2022-07-29T13:57:31;42.10;36.80
39889;DHT22;25563;50.844;4.308;2022-07-29T13:59:57;42.20;36.20
39889;DHT22;25563;50.844;4.308;2022-07-29T14:02:24;42.10;36.20
39889;DHT22;25563;50.844;4.308;2022-07-29T14:04:50;42.50;36.10
39889;DHT22;25563;50.844;4.308;2022-07-29T14:07:17;42.40;35.70
39889;DHT22;25563;50.844;4.308;2022-07-29T14:09:44;41.30;36.10
39889;DHT22;25563;50.844;4.308;2022-07-29T14:12:11;39.10;36.90
39889;DHT22;25563;50.844;4.308;2022-07-29T14:14:44;37.50;37.80
39889;DHT22;25563;50.844;4.308;2022-07-29T14:17:10;38.30;38.30
39889;DHT22;25563;50.844;4.308;2022-07-29T14:19:37;38.10;39.00
39889;DHT22;25563;50.844;4.308;2022-07-29T14:22:05;39.70;38.00
39889;DHT22;25563;50.844;4.308;2022-07-29T14:24:32;40.90;36.70
39889;DHT22;25563;50.844;4.308;2022-07-29T14:26:59;39.20;37.70
39889;DHT22;25563;50.844;4.308;2022-07-29T14:29:25;39.80;37.20
39889;DHT22;25563;50.844;4.308;2022-07-29T14:35:12;41.10;35.70
39889;DHT22;25563;50.844;4.308;2022-07-29T14:37:38;41.30;35.40
39889;DHT22;25563;50.844;4.308;2022-07-29T14:40:04;41.70;35.40
39889;DHT22;25563;50.844;4.308;2022-07-29T14:42:37;42.30;35.50
39889;DHT22;25563;50.844;4.308;2022-07-29T14:45:05;42.50;34.80
39889;DHT22;25563;50.844;4.308;2022-07-29T14:47:33;42.90;34.70
39889;DHT22;25563;50.844;4.308;2022-07-29T14:50:03;42.80;34.90
39889;DHT22;25563;50.844;4.308;2022-07-29T14:52:29;42.20;35.50
39889;DHT22;25563;50.844;4.308;2022-07-29T14:54:55;42.30;34.90
39889;DHT22;25563;50.844;4.308;2022-07-29T14:57:21;42.50;34.70
39889;DHT22;25563;50.844;4.308;2022-07-29T14:59:47;43.00;34.90
39889;DHT22;25563;50.844;4.308;2022-07-29T15:02:13;42.70;34.50
39889;DHT22;25563;50.844;4.308;2022-07-29T15:04:41;41.30;35.10
39889;DHT22;25563;50.844;4.308;2022-07-29T15:07:10;39.60;36.50
39889;DHT22;25563;50.844;4.308;2022-07-29T15:09:35;40.10;36.30
39889;DHT22;25563;50.844;4.308;2022-07-29T15:12:03;41.30;36.20
39889;DHT22;25563;50.844;4.308;2022-07-29T15:14:29;41.50;35.80
39889;DHT22;25563;50.844;4.308;2022-07-29T15:16:57;41.60;36.10
39889;DHT22;25563;50.844;4.308;2022-07-29T15:19:23;41.10;35.90
39889;DHT22;25563;50.844;4.308;2022-07-29T15:21:50;41.10;36.30
39889;DHT22;25563;50.844;4.308;2022-07-29T15:24:17;41.50;35.60
39889;DHT22;25563;50.844;4.308;2022-07-29T15:26:44;42.10;35.60
39889;DHT22;25563;50.844;4.308;2022-07-29T15:29:12;42.20;35.50
39889;DHT22;25563;50.844;4.308;2022-07-29T15:31:41;42.00;35.50
39889;DHT22;25563;50.844;4.308;2022-07-29T15:34:09;42.30;35.40
39889;DHT22;25563;50.844;4.308;2022-07-29T15:36:35;42.80;35.50
39889;DHT22;25563;50.844;4.308;2022-07-29T15:39:03;42.80;35.20
39889;DHT22;25563;50.844;4.308;2022-07-29T15:41:29;42.10;35.30
39889;DHT22;25563;50.844;4.308;2022-07-29T15:43:55;41.80;35.50
39889;DHT22;25563;50.844;4.308;2022-07-29T15:46:23;42.00;35.60
39889;DHT22;25563;50.844;4.308;2022-07-29T15:49:08;42.50;35.10
39889;DHT22;25563;50.844;4.308;2022-07-29T15:51:36;42.60;34.90
39889;DHT22;25563;50.844;4.308;2022-07-29T15:54:05;42.60;34.70
39889;DHT22;25563;50.844;4.308;2022-07-29T15:56:33;42.20;34.90
39889;DHT22;25563;50.844;4.308;2022-07-29T15:58:59;41.80;34.90
39889;DHT22;25563;50.844;4.308;2022-07-29T16:01:27;41.40;35.30
39889;DHT22;25563;50.844;4.308;2022-07-29T16:03:53;41.10;35.20
39889;DHT22;25563;50.844;4.308;2022-07-29T16:06:19;41.30;35.20
39889;DHT22;25563;50.844;4.308;2022-07-29T16:08:46;41.50;35.40
39889;DHT22;25563;50.844;4.308;2022-07-29T16:11:12;41.20;35.20
39889;DHT22;25563;50.844;4.308;2022-07-29T16:13:38;40.70;35.70
39889;DHT22;25563;50.844;4.308;2022-07-29T16:16:04;40.40;35.60
39889;DHT22;25563;50.844;4.308;2022-07-29T16:18:30;40.70;35.70
39889;DHT22;25563;50.844;4.308;2022-07-29T16:20:57;40.00;35.90
39889;DHT22;25563;50.844;4.308;2022-07-29T16:23:25;38.20;37.00
39889;DHT22;25563;50.844;4.308;2022-07-29T16:25:51;36.80;37.70
39889;DHT22;25563;50.844;4.308;2022-07-29T16:28:17;35.60;38.70
39889;DHT22;25563;50.844;4.308;2022-07-29T16:30:53;35.50;38.90
39889;DHT22;25563;50.844;4.308;2022-07-29T16:33:22;34.90;39.80
39889;DHT22;25563;50.844;4.308;2022-07-29T16:35:55;34.30;40.10
39889;DHT22;25563;50.844;4.308;2022-07-29T16:38:21;34.70;40.10
39889;DHT22;25563;50.844;4.308;2022-07-29T16:40:48;36.00;39.30
39889;DHT22;25563;50.844;4.308;2022-07-29T16:43:18;37.10;38.80